Time;durP1;ratioP1;P1;durP2;ratioP2;P2;SDS_P1;SDS_P2;PMS_P1;PMS_P2;Temp;Humidity;BMP_temperature;BMP_pressure;BME280_temperature;BME280_humidity;BME280_pressure;Samples;Min_cycle;Max_cycle;Signal;HPM_P1;HPM_P2
2021/01/25 00:00:20;;;;;;;;;;;;;;;;;;5009115;28;857;-70
2021/01/25 00:02:46;;;;;;;;;;;;;;;;;;5009289;28;831;-66
2021/01/25 00:05:11;;;;;;;;;;;;;;;;;;5008600;28;898;-68
2021/01/25 00:07:37;;;;;;;;;;;;;;;;;;5008704;28;1151;-68
2021/01/25 00:10:03;;;;;;;;;;;;;;;;;;5007859;28;1154;-69
2021/01/25 00:12:29;;;;;;;;;;;;;;;;;;5008174;28;902;-69
2021/01/25 00:14:54;;;;;;;;;;;;;;;;;;5008159;28;1902;-67
2021/01/25 00:17:20;;;;;;;;;;;;;;;;;;5008748;28;843;-70
2021/01/25 00:19:45;;;;;;;;;;;;;;;;;;5008710;28;695;-68
2021/01/25 00:22:10;;;;;;;;;;;;;;;;;;5007559;28;925;-68
2021/01/25 00:24:36;;;;;;;;;;;;;;;;;;5008126;28;910;-66
2021/01/25 00:27:01;;;;;;;;;;;;;;;;;;5007458;28;867;-68
2021/01/25 00:29:26;;;;;;;;;;;;;;;;;;5007646;28;843;-65
2021/01/25 00:31:54;;;;;;;;;;;;;;;;;;5007681;28;812;-68
2021/01/25 00:34:20;;;;;;;;;;;;;;;;;;5008172;28;1894;-70
2021/01/25 00:36:45;;;;;;;;;;;;;;;;;;5008888;28;843;-66
2021/01/25 00:39:11;;;;;;;;;;;;;;;;;;5007685;28;855;-68
2021/01/25 00:41:36;;;;;;;;;;;;;;;;;;5007707;28;918;-68
2021/01/25 00:44:01;;;;;;;;;;;;;;;;;;5007537;28;883;-68
2021/01/25 00:46:27;;;;;;;;;;;;;;;;;;5007342;28;891;-68
2021/01/25 00:48:52;;;;;;;;;;;;;;;;;;5007557;28;791;-68
2021/01/25 00:51:17;;;;;;;;;;;;;;;;;;5008277;28;851;-68
2021/01/25 00:53:43;;;;;;;;;;;;;;;;;;5007495;28;898;-67
2021/01/25 00:56:10;;;;;;;;;;;;;;;;;;5007057;28;1894;-68
2021/01/25 00:58:35;;;;;;;;;;;;;;;;;;5006656;28;831;-69
2021/01/25 01:01:01;;;;;;;;;;;;;;;;;;5007398;28;919;-68
2021/01/25 01:03:26;;;;;;;;;;;;;;;;;;5007702;28;847;-68
2021/01/25 01:05:51;;;;;;;;;;;;;;;;;;5007847;28;819;-68
2021/01/25 01:08:17;;;;;;;;;;;;;;;;;;5008450;28;824;-68
2021/01/25 01:10:42;;;;;;;;;;;;;;;;;;5007063;28;1076;-69
2021/01/25 01:13:07;;;;;;;;;;;;;;;;;;5007216;28;831;-68
2021/01/25 01:15:33;;;;;;;;;;;;;;;;;;5007350;28;1910;-68
2021/01/25 01:17:58;;;;;;;;;;;;;;;;;;5007122;28;1052;-68
2021/01/25 01:20:24;;;;;;;;;;;;;;;;;;5007062;28;1111;-68
2021/01/25 01:22:49;;;;;;;;;;;;;;;;;;5011078;28;886;-69
2021/01/25 01:25:15;;;;;;;;;;;;;;;;;;5012011;28;859;-68
2021/01/25 01:27:40;;;;;;;;;;;;;;;;;;5011192;28;864;-69
2021/01/25 01:30:06;;;;;;;;;;;;;;;;;;5010499;28;910;-68
2021/01/25 01:32:31;;;;;;;;;;;;;;;;;;5011197;28;860;-68
2021/01/25 01:34:57;;;;;;;;;;;;;;;;;;5011095;28;1910;-68
2021/01/25 01:37:22;;;;;;;;;;;;;;;;;;5010859;28;943;-67
2021/01/25 01:39:47;;;;;;;;;;;;;;;;;;5012231;28;922;-68
2021/01/25 01:42:22;;;;;;;;;;;;;;;;;;5010943;28;897;-68
2021/01/25 01:44:47;;;;;;;;;;;;;;;;;;5011539;28;850;-67
2021/01/25 01:47:22;;;;;;;;;;;;;;;;;;5010915;28;811;-68
2021/01/25 01:49:49;;;;;;;;;;;;;;;;;;5011812;28;887;-66
2021/01/25 01:52:15;;;;;;;;;;;;;;;;;;5011292;28;1071;-68
2021/01/25 01:54:40;;;;;;;;;;;;;;;;;;5010483;28;1926;-67
2021/01/25 01:57:06;;;;;;;;;;;;;;;;;;5011257;28;839;-68
2021/01/25 01:59:32;;;;;;;;;;;;;;;;;;5010111;28;832;-67
2021/01/25 02:01:57;;;;;;;;;;;;;;;;;;5010121;28;937;-67
2021/01/25 02:04:22;;;;;;;;;;;;;;;;;;5010404;28;911;-68
2021/01/25 02:06:49;;;;;;;;;;;;;;;;;;5011214;28;832;-68
2021/01/25 02:09:15;;;;;;;;;;;;;;;;;;5011151;28;1151;-68
2021/01/25 02:11:41;;;;;;;;;;;;;;;;;;5010089;28;927;-68
2021/01/25 02:14:08;;;;;;;;;;;;;;;;;;5010869;28;819;-66
2021/01/25 02:16:36;;;;;;;;;;;;;;;;;;5010338;28;824;-67
2021/01/25 02:19:01;;;;;;;;;;;;;;;;;;5009703;28;922;-68
2021/01/25 02:21:28;;;;;;;;;;;;;;;;;;5009835;28;917;-68
2021/01/25 02:24:09;;;;;;;;;;;;;;;;;;5009964;28;911;-68
2021/01/25 02:26:41;;;;;;;;;;;;;;;;;;5009879;28;910;-68
2021/01/25 02:29:07;;;;;;;;;;;;;;;;;;5009759;28;918;-68
2021/01/25 02:31:32;;;;;;;;;;;;;;;;;;5009892;28;894;-68
2021/01/25 02:33:58;;;;;;;;;;;;;;;;;;5009604;28;865;-68
2021/01/25 02:36:24;;;;;;;;;;;;;;;;;;5009352;28;1894;-67
2021/01/25 02:38:51;;;;;;;;;;;;;;;;;;5010152;28;831;-69
2021/01/25 02:41:17;;;;;;;;;;;;;;;;;;5010420;28;835;-68
2021/01/25 02:43:44;;;;;;;;;;;;;;;;;;5009606;28;776;-68
2021/01/25 02:46:09;;;;;;;;;;;;;;;;;;5009229;28;937;-68
2021/01/25 02:48:35;;;;;;;;;;;;;;;;;;5009724;28;850;-68
2021/01/25 02:51:00;;;;;;;;;;;;;;;;;;5009744;28;879;-66
2021/01/25 02:53:26;;;;;;;;;;;;;;;;;;5009500;28;918;-68
2021/01/25 02:55:51;;;;;;;;;;;;;;;;;;5009548;28;1973;-67
2021/01/25 02:58:19;;;;;;;;;;;;;;;;;;5009926;28;946;-68
2021/01/25 03:00:44;;;;;;;;;;;;;;;;;;5009393;28;935;-67
2021/01/25 03:03:10;;;;;;;;;;;;;;;;;;5009506;28;827;-68
2021/01/25 03:05:35;;;;;;;;;;;;;;;;;;5009180;28;831;-67
2021/01/25 03:08:02;;;;;;;;;;;;;;;;;;5009053;28;823;-67
2021/01/25 03:10:28;;;;;;;;;;;;;;;;;;5008869;28;1084;-67
2021/01/25 03:12:58;;;;;;;;;;;;;;;;;;5009442;28;953;-67
2021/01/25 03:15:24;;;;;;;;;;;;;;;;;;5009182;28;1914;-67
2021/01/25 03:17:49;;;;;;;;;;;;;;;;;;5008455;28;1142;-69
2021/01/25 03:20:14;;;;;;;;;;;;;;;;;;5009933;28;835;-68
2021/01/25 03:22:40;;;;;;;;;;;;;;;;;;5008603;28;914;-67
2021/01/25 03:25:05;;;;;;;;;;;;;;;;;;5008588;28;919;-66
2021/01/25 03:27:31;;;;;;;;;;;;;;;;;;5009175;28;839;-67
2021/01/25 03:29:56;;;;;;;;;;;;;;;;;;5009520;28;800;-67
2021/01/25 03:32:21;;;;;;;;;;;;;;;;;;5009174;28;853;-67
2021/01/25 03:34:47;;;;;;;;;;;;;;;;;;5009260;28;1898;-67
2021/01/25 03:37:12;;;;;;;;;;;;;;;;;;5009022;28;902;-66
2021/01/25 03:39:38;;;;;;;;;;;;;;;;;;5008302;28;815;-66
2021/01/25 03:42:03;;;;;;;;;;;;;;;;;;5008308;28;713;-65
2021/01/25 03:44:29;;;;;;;;;;;;;;;;;;5008498;28;878;-66
2021/01/25 03:46:54;;;;;;;;;;;;;;;;;;5008654;28;839;-67
2021/01/25 03:49:19;;;;;;;;;;;;;;;;;;5008144;28;851;-68
2021/01/25 03:51:45;;;;;;;;;;;;;;;;;;5007710;28;902;-67
2021/01/25 03:54:11;;;;;;;;;;;;;;;;;;5008745;28;863;-67
2021/01/25 03:56:36;;;;;;;;;;;;;;;;;;5008231;28;1886;-66
2021/01/25 03:59:02;;;;;;;;;;;;;;;;;;5008552;28;871;-66
2021/01/25 04:01:27;;;;;;;;;;;;;;;;;;5008637;28;928;-66
2021/01/25 04:03:53;;;;;;;;;;;;;;;;;;5008472;28;918;-66
2021/01/25 04:06:18;;;;;;;;;;;;;;;;;;5008910;28;899;-66
2021/01/25 04:08:43;;;;;;;;;;;;;;;;;;5008000;28;1177;-66
2021/01/25 04:11:09;;;;;;;;;;;;;;;;;;5008004;28;1084;-66
2021/01/25 04:13:34;;;;;;;;;;;;;;;;;;5007866;28;902;-67
2021/01/25 04:16:00;;;;;;;;;;;;;;;;;;5007910;28;1914;-67
2021/01/25 04:18:25;;;;;;;;;;;;;;;;;;5008015;28;859;-67
2021/01/25 04:20:50;;;;;;;;;;;;;;;;;;5007731;28;819;-66
2021/01/25 04:23:16;;;;;;;;;;;;;;;;;;5008761;28;843;-65
2021/01/25 04:25:41;;;;;;;;;;;;;;;;;;5008219;28;828;-65
2021/01/25 04:28:06;;;;;;;;;;;;;;;;;;5008104;28;894;-66
2021/01/25 04:30:31;;;;;;;;;;;;;;;;;;5008302;28;824;-67
2021/01/25 04:32:57;;;;;;;;;;;;;;;;;;5007816;28;824;-65
2021/01/25 04:35:22;;;;;;;;;;;;;;;;;;5007506;28;1971;-67
2021/01/25 04:37:47;;;;;;;;;;;;;;;;;;5008238;28;823;-67
2021/01/25 04:40:13;;;;;;;;;;;;;;;;;;5007271;28;839;-67
2021/01/25 04:42:39;;;;;;;;;;;;;;;;;;5007782;28;875;-65
2021/01/25 04:45:06;;;;;;;;;;;;;;;;;;5007702;28;879;-66
2021/01/25 04:47:31;;;;;;;;;;;;;;;;;;5007408;28;816;-66
2021/01/25 04:49:57;;;;;;;;;;;;;;;;;;5006687;28;842;-66
2021/01/25 04:52:23;;;;;;;;;;;;;;;;;;5007456;28;887;-66
2021/01/25 04:54:49;;;;;;;;;;;;;;;;;;5008311;28;1894;-66
2021/01/25 04:57:15;;;;;;;;;;;;;;;;;;5011434;28;891;-66
2021/01/25 04:59:42;;;;;;;;;;;;;;;;;;5011727;28;919;-65
2021/01/25 05:02:07;;;;;;;;;;;;;;;;;;5011588;28;962;-67
2021/01/25 05:04:33;;;;;;;;;;;;;;;;;;5011099;28;883;-66
2021/01/25 05:06:58;;;;;;;;;;;;;;;;;;5011161;28;799;-67
2021/01/25 05:09:23;;;;;;;;;;;;;;;;;;5011772;28;1147;-67
2021/01/25 05:11:56;;;;;;;;;;;;;;;;;;5011793;28;824;-68
2021/01/25 05:14:21;;;;;;;;;;;;;;;;;;5010720;28;1910;-67
2021/01/25 05:16:47;;;;;;;;;;;;;;;;;;5012303;28;922;-66
2021/01/25 05:19:12;;;;;;;;;;;;;;;;;;5011373;28;871;-67
2021/01/25 05:21:42;;;;;;;;;;;;;;;;;;5010889;28;1011;-67
2021/01/25 05:24:08;;;;;;;;;;;;;;;;;;5011370;28;906;-67
2021/01/25 05:26:39;;;;;;;;;;;;;;;;;;5010849;28;711;-66
2021/01/25 05:29:05;;;;;;;;;;;;;;;;;;5010713;28;894;-67
2021/01/25 05:31:30;;;;;;;;;;;;;;;;;;5010964;28;882;-67
2021/01/25 05:33:56;;;;;;;;;;;;;;;;;;5010983;28;819;-66
2021/01/25 05:36:24;;;;;;;;;;;;;;;;;;5009941;28;1886;-66
2021/01/25 05:38:50;;;;;;;;;;;;;;;;;;5010726;28;886;-67
2021/01/25 05:41:16;;;;;;;;;;;;;;;;;;5011516;28;922;-65
2021/01/25 05:43:41;;;;;;;;;;;;;;;;;;5011012;28;899;-66
2021/01/25 05:46:07;;;;;;;;;;;;;;;;;;5011017;28;850;-64
2021/01/25 05:48:33;;;;;;;;;;;;;;;;;;5010813;28;835;-65
2021/01/25 05:51:09;;;;;;;;;;;;;;;;;;5011034;28;902;-66
2021/01/25 05:53:37;;;;;;;;;;;;;;;;;;5009063;28;899;-67
2021/01/25 05:56:05;;;;;;;;;;;;;;;;;;5010004;28;1890;-66
2021/01/25 05:58:30;;;;;;;;;;;;;;;;;;5010465;28;1200;-65
2021/01/25 06:00:55;;;;;;;;;;;;;;;;;;5010235;28;928;-67
2021/01/25 06:03:21;;;;;;;;;;;;;;;;;;5010277;28;903;-64
2021/01/25 06:05:47;;;;;;;;;;;;;;;;;;5011289;28;970;-63
2021/01/25 06:08:12;;;;;;;;;;;;;;;;;;5010010;28;847;-64
2021/01/25 06:10:44;;;;;;;;;;;;;;;;;;5010072;28;1143;-63
2021/01/25 06:13:13;;;;;;;;;;;;;;;;;;5010326;28;800;-65
2021/01/25 06:15:40;;;;;;;;;;;;;;;;;;5010443;28;1894;-65
2021/01/25 06:18:06;;;;;;;;;;;;;;;;;;5010195;28;846;-65
2021/01/25 06:20:31;;;;;;;;;;;;;;;;;;5010232;28;895;-62
2021/01/25 06:22:57;;;;;;;;;;;;;;;;;;5010461;28;828;-65
2021/01/25 06:25:23;;;;;;;;;;;;;;;;;;5010202;28;852;-66
2021/01/25 06:27:52;;;;;;;;;;;;;;;;;;5011083;28;819;-65
2021/01/25 06:30:18;;;;;;;;;;;;;;;;;;5010901;28;791;-64
2021/01/25 06:32:43;;;;;;;;;;;;;;;;;;5009817;28;903;-65
2021/01/25 06:35:11;;;;;;;;;;;;;;;;;;5009758;28;1890;-63
2021/01/25 06:37:37;;;;;;;;;;;;;;;;;;5010136;28;843;-65
2021/01/25 06:40:06;;;;;;;;;;;;;;;;;;5010571;28;855;-62
2021/01/25 06:42:32;;;;;;;;;;;;;;;;;;5009931;28;877;-65
2021/01/25 06:45:04;;;;;;;;;;;;;;;;;;5009468;28;847;-65
2021/01/25 06:47:29;;;;;;;;;;;;;;;;;;5009802;28;930;-62
2021/01/25 06:49:57;;;;;;;;;;;;;;;;;;5009780;28;855;-65
2021/01/25 06:52:24;;;;;;;;;;;;;;;;;;5009478;28;907;-64
2021/01/25 06:54:50;;;;;;;;;;;;;;;;;;5009502;28;1878;-68
2021/01/25 06:57:23;;;;;;;;;;;;;;;;;;5010531;28;836;-62
2021/01/25 06:59:50;;;;;;;;;;;;;;;;;;5010459;28;902;-61
2021/01/25 07:02:17;;;;;;;;;;;;;;;;;;5010214;28;922;-63
2021/01/25 07:04:49;;;;;;;;;;;;;;;;;;5009511;28;892;-62
2021/01/25 07:07:23;;;;;;;;;;;;;;;;;;5009950;28;898;-64
2021/01/25 07:09:51;;;;;;;;;;;;;;;;;;5009705;28;1100;-68
2021/01/25 07:12:17;;;;;;;;;;;;;;;;;;5010321;28;827;-62
2021/01/25 07:14:43;;;;;;;;;;;;;;;;;;5009137;28;1902;-62
2021/01/25 07:17:08;;;;;;;;;;;;;;;;;;5009307;28;881;-62
2021/01/25 07:19:34;;;;;;;;;;;;;;;;;;5007707;28;815;-63
2021/01/25 07:22:00;;;;;;;;;;;;;;;;;;5008867;28;831;-63
2021/01/25 07:24:26;;;;;;;;;;;;;;;;;;5008373;28;887;-62
2021/01/25 07:26:52;;;;;;;;;;;;;;;;;;5008098;28;1031;-62
2021/01/25 07:29:17;;;;;;;;;;;;;;;;;;5009026;28;819;-62
2021/01/25 07:31:42;;;;;;;;;;;;;;;;;;5008270;28;800;-61
2021/01/25 07:34:08;;;;;;;;;;;;;;;;;;5008520;28;979;-61
2021/01/25 07:36:34;;;;;;;;;;;;;;;;;;5008702;28;1890;-62
2021/01/25 07:39:00;;;;;;;;;;;;;;;;;;5009017;28;859;-61
2021/01/25 07:41:25;;;;;;;;;;;;;;;;;;5008425;28;946;-62
2021/01/25 07:43:51;;;;;;;;;;;;;;;;;;5008237;28;946;-63
2021/01/25 07:46:16;;;;;;;;;;;;;;;;;;5009305;28;891;-65
2021/01/25 07:48:51;;;;;;;;;;;;;;;;;;5008173;28;930;-67
2021/01/25 07:51:20;;;;;;;;;;;;;;;;;;5008709;28;859;-66
2021/01/25 07:53:46;;;;;;;;;;;;;;;;;;5009553;28;816;-67
2021/01/25 07:56:18;;;;;;;;;;;;;;;;;;5008432;28;1971;-65
2021/01/25 07:58:44;;;;;;;;;;;;;;;;;;5008666;28;999;-66
2021/01/25 08:01:13;;;;;;;;;;;;;;;;;;5008415;28;828;-66
2021/01/25 08:03:41;;;;;;;;;;;;;;;;;;5008614;28;878;-66
2021/01/25 08:06:07;;;;;;;;;;;;;;;;;;5007939;28;860;-67
2021/01/25 08:08:34;;;;;;;;;;;;;;;;;;5008085;28;1070;-66
2021/01/25 08:10:59;;;;;;;;;;;;;;;;;;5008063;28;1175;-67
2021/01/25 08:13:26;;;;;;;;;;;;;;;;;;5008011;28;871;-65
2021/01/25 08:16:03;;;;;;;;;;;;;;;;;;5007479;28;1989;-66
2021/01/25 08:18:31;;;;;;;;;;;;;;;;;;5007599;28;848;-65
2021/01/25 08:20:59;;;;;;;;;;;;;;;;;;5007815;28;906;-65
2021/01/25 08:23:25;;;;;;;;;;;;;;;;;;5007777;28;811;-67
2021/01/25 08:25:57;;;;;;;;;;;;;;;;;;5007683;28;903;-65
2021/01/25 08:28:26;;;;;;;;;;;;;;;;;;5008205;28;887;-67
2021/01/25 08:30:52;;;;;;;;;;;;;;;;;;5007537;28;800;-67
2021/01/25 08:33:17;;;;;;;;;;;;;;;;;;5008420;28;867;-66
2021/01/25 08:35:53;;;;;;;;;;;;;;;;;;5006477;28;1968;-67
2021/01/25 08:38:19;;;;;;;;;;;;;;;;;;5004828;28;896;-69
2021/01/25 08:40:44;;;;;;;;;;;;;;;;;;5023611;28;843;-66
2021/01/25 08:43:22;;;;;;;;;;;;;;;;;;5007549;28;862;-67
2021/01/25 08:45:48;;;;;;;;;;;;;;;;;;5008778;28;887;-66
2021/01/25 08:48:13;;;;;;;;;;;;;;;;;;5007485;28;949;-66
2021/01/25 08:50:39;;;;;;;;;;;;;;;;;;5007175;28;823;-66
2021/01/25 08:53:06;;;;;;;;;;;;;;;;;;5007397;28;906;-67
2021/01/25 08:55:36;;;;;;;;;;;;;;;;;;5006915;28;1986;-67
2021/01/25 08:58:02;;;;;;;;;;;;;;;;;;5007294;28;924;-66
2021/01/25 09:00:28;;;;;;;;;;;;;;;;;;5007624;28;910;-66
2021/01/25 09:03:03;;;;;;;;;;;;;;;;;;5007829;28;922;-66
2021/01/25 09:05:29;;;;;;;;;;;;;;;;;;5007007;28;807;-66
2021/01/25 09:07:54;;;;;;;;;;;;;;;;;;5007294;28;795;-67
2021/01/25 09:10:20;;;;;;;;;;;;;;;;;;5007580;28;1084;-67
2021/01/25 09:12:45;;;;;;;;;;;;;;;;;;5008368;28;808;-66
2021/01/25 09:15:11;;;;;;;;;;;;;;;;;;5007262;28;1975;-65
2021/01/25 09:17:37;;;;;;;;;;;;;;;;;;5007851;28;831;-64
2021/01/25 09:20:03;;;;;;;;;;;;;;;;;;5006917;28;925;-67
2021/01/25 09:22:28;;;;;;;;;;;;;;;;;;5007221;28;823;-67
2021/01/25 09:24:54;;;;;;;;;;;;;;;;;;5006791;28;815;-65
2021/01/25 09:27:19;;;;;;;;;;;;;;;;;;5007445;28;827;-68
2021/01/25 09:29:44;;;;;;;;;;;;;;;;;;5007250;28;1214;-67
2021/01/25 09:32:10;;;;;;;;;;;;;;;;;;5006944;28;882;-67
2021/01/25 09:34:35;;;;;;;;;;;;;;;;;;5007236;28;1890;-67
2021/01/25 09:37:03;;;;;;;;;;;;;;;;;;5007271;28;891;-67
2021/01/25 09:39:28;;;;;;;;;;;;;;;;;;5007160;28;843;-67
2021/01/25 09:41:53;;;;;;;;;;;;;;;;;;5007702;28;918;-65
2021/01/25 09:44:19;;;;;;;;;;;;;;;;;;5011003;28;815;-69
2021/01/25 09:46:44;;;;;;;;;;;;;;;;;;5011436;28;843;-68
2021/01/25 09:49:10;;;;;;;;;;;;;;;;;;5009906;28;847;-66
2021/01/25 09:51:35;;;;;;;;;;;;;;;;;;5010527;28;886;-66
2021/01/25 09:54:01;;;;;;;;;;;;;;;;;;5010332;28;819;-66
2021/01/25 09:56:26;;;;;;;;;;;;;;;;;;5009981;28;1967;-66
2021/01/25 09:58:51;;;;;;;;;;;;;;;;;;5010633;28;930;-66
2021/01/25 10:01:17;;;;;;;;;;;;;;;;;;5011425;28;828;-65
2021/01/25 10:03:42;;;;;;;;;;;;;;;;;;5010230;28;1241;-67
2021/01/25 10:06:08;;;;;;;;;;;;;;;;;;5009808;28;819;-66
2021/01/25 10:08:36;;;;;;;;;;;;;;;;;;5010696;28;859;-65
2021/01/25 10:11:01;;;;;;;;;;;;;;;;;;5010350;28;1147;-66
2021/01/25 10:13:27;;;;;;;;;;;;;;;;;;5010384;28;839;-65
2021/01/25 10:15:52;;;;;;;;;;;;;;;;;;5010031;28;1902;-67
2021/01/25 10:18:18;;;;;;;;;;;;;;;;;;5010856;28;919;-67
2021/01/25 10:20:44;;;;;;;;;;;;;;;;;;5009820;28;890;-66
2021/01/25 10:23:09;;;;;;;;;;;;;;;;;;5009696;28;878;-65
2021/01/25 10:25:34;;;;;;;;;;;;;;;;;;5010437;28;842;-67
2021/01/25 10:28:01;;;;;;;;;;;;;;;;;;5010096;28;851;-66
2021/01/25 10:30:27;;;;;;;;;;;;;;;;;;5009978;28;882;-66
2021/01/25 10:32:52;;;;;;;;;;;;;;;;;;5010463;28;946;-66
2021/01/25 10:35:18;;;;;;;;;;;;;;;;;;5011043;28;1897;-66
2021/01/25 10:37:44;;;;;;;;;;;;;;;;;;5010739;28;895;-67
2021/01/25 10:40:10;;;;;;;;;;;;;;;;;;5009401;28;804;-66
2021/01/25 10:42:35;;;;;;;;;;;;;;;;;;5009819;28;816;-68
2021/01/25 10:45:00;;;;;;;;;;;;;;;;;;5009367;28;889;-66
2021/01/25 10:47:26;;;;;;;;;;;;;;;;;;5009363;28;804;-65
2021/01/25 10:49:52;;;;;;;;;;;;;;;;;;5010093;28;836;-65
2021/01/25 10:52:17;;;;;;;;;;;;;;;;;;5010525;28;838;-66
2021/01/25 10:54:43;;;;;;;;;;;;;;;;;;5008225;28;1902;-67
2021/01/25 10:57:08;;;;;;;;;;;;;;;;;;5009346;28;902;-66
2021/01/25 10:59:34;;;;;;;;;;;;;;;;;;5009319;28;949;-66
2021/01/25 11:01:59;;;;;;;;;;;;;;;;;;5008937;28;984;-67
2021/01/25 11:04:25;;;;;;;;;;;;;;;;;;5008829;28;838;-65
2021/01/25 11:06:50;;;;;;;;;;;;;;;;;;5009549;28;832;-64
2021/01/25 11:09:16;;;;;;;;;;;;;;;;;;5009630;28;1080;-67
2021/01/25 11:11:41;;;;;;;;;;;;;;;;;;5009015;28;863;-66
2021/01/25 11:14:07;;;;;;;;;;;;;;;;;;5009364;28;929;-66
2021/01/25 11:16:33;;;;;;;;;;;;;;;;;;5009387;28;1973;-66
2021/01/25 11:18:58;;;;;;;;;;;;;;;;;;5009162;28;891;-66
2021/01/25 11:21:23;;;;;;;;;;;;;;;;;;5007489;28;942;-67
2021/01/25 11:23:50;;;;;;;;;;;;;;;;;;5009528;28;819;-68
2021/01/25 11:26:17;;;;;;;;;;;;;;;;;;5009166;28;847;-67
2021/01/25 11:28:42;;;;;;;;;;;;;;;;;;5008619;28;1780;-67
2021/01/25 11:31:08;;;;;;;;;;;;;;;;;;5008976;28;931;-66
2021/01/25 11:33:33;;;;;;;;;;;;;;;;;;5008310;28;996;-66
2021/01/25 11:35:58;;;;;;;;;;;;;;;;;;5008547;28;1898;-65
2021/01/25 11:38:24;;;;;;;;;;;;;;;;;;5008680;28;832;-67
2021/01/25 11:40:50;;;;;;;;;;;;;;;;;;5009574;28;835;-67
2021/01/25 11:43:15;;;;;;;;;;;;;;;;;;5008964;28;883;-66
2021/01/25 11:45:41;;;;;;;;;;;;;;;;;;5008080;28;882;-64
2021/01/25 11:48:06;;;;;;;;;;;;;;;;;;5008595;28;827;-67
2021/01/25 11:50:32;;;;;;;;;;;;;;;;;;5007120;28;876;-67
2021/01/25 11:52:57;;;;;;;;;;;;;;;;;;5008258;28;870;-67
2021/01/25 11:55:22;;;;;;;;;;;;;;;;;;5008546;28;1898;-67
2021/01/25 11:57:48;;;;;;;;;;;;;;;;;;5009316;28;879;-67
2021/01/25 12:00:13;;;;;;;;;;;;;;;;;;5008203;28;920;-67
2021/01/25 12:02:41;;;;;;;;;;;;;;;;;;5008090;28;812;-65
2021/01/25 12:05:07;;;;;;;;;;;;;;;;;;5008226;28;930;-66
2021/01/25 12:07:32;;;;;;;;;;;;;;;;;;5008223;28;792;-66
2021/01/25 12:09:57;;;;;;;;;;;;;;;;;;5007985;28;1131;-68
2021/01/25 12:12:23;;;;;;;;;;;;;;;;;;5008253;28;832;-68
2021/01/25 12:14:48;;;;;;;;;;;;;;;;;;5009255;28;1973;-67
2021/01/25 12:17:13;;;;;;;;;;;;;;;;;;5008058;28;891;-67
2021/01/25 12:19:40;;;;;;;;;;;;;;;;;;5006625;28;2439;-67
2021/01/25 12:22:05;;;;;;;;;;;;;;;;;;5008473;28;915;-63
2021/01/25 12:24:31;;;;;;;;;;;;;;;;;;5007774;28;906;-63
2021/01/25 12:26:56;;;;;;;;;;;;;;;;;;5007765;28;812;-62
2021/01/25 12:29:21;;;;;;;;;;;;;;;;;;5008252;28;819;-63
2021/01/25 12:31:48;;;;;;;;;;;;;;;;;;5008964;28;907;-63
2021/01/25 12:34:14;;;;;;;;;;;;;;;;;;5007225;28;906;-62
2021/01/25 12:36:39;;;;;;;;;;;;;;;;;;5007246;28;1894;-63
2021/01/25 12:39:05;;;;;;;;;;;;;;;;;;5007534;28;860;-62
2021/01/25 12:41:30;;;;;;;;;;;;;;;;;;5007255;28;867;-63
2021/01/25 12:43:56;;;;;;;;;;;;;;;;;;5007100;28;902;-63
2021/01/25 12:46:22;;;;;;;;;;;;;;;;;;5007422;28;828;-63
2021/01/25 12:48:47;;;;;;;;;;;;;;;;;;5007948;28;861;-61
2021/01/25 12:51:13;;;;;;;;;;;;;;;;;;5006731;28;915;-61
2021/01/25 12:53:38;;;;;;;;;;;;;;;;;;5007383;28;898;-61
2021/01/25 12:56:03;;;;;;;;;;;;;;;;;;5007876;28;1899;-62
2021/01/25 12:58:29;;;;;;;;;;;;;;;;;;5007513;28;859;-63
2021/01/25 13:00:54;;;;;;;;;;;;;;;;;;5007351;28;812;-65
2021/01/25 13:03:20;;;;;;;;;;;;;;;;;;5008484;28;1114;-65
2021/01/25 13:05:45;;;;;;;;;;;;;;;;;;5007736;28;847;-65
2021/01/25 13:08:11;;;;;;;;;;;;;;;;;;5007047;28;820;-66
2021/01/25 13:10:36;;;;;;;;;;;;;;;;;;5007230;28;1135;-65
2021/01/25 13:13:04;;;;;;;;;;;;;;;;;;5007510;28;918;-65
2021/01/25 13:15:30;;;;;;;;;;;;;;;;;;5007263;28;1894;-65
2021/01/25 13:17:55;;;;;;;;;;;;;;;;;;5009634;28;858;-64
2021/01/25 13:20:23;;;;;;;;;;;;;;;;;;5011934;28;910;-66
2021/01/25 13:22:49;;;;;;;;;;;;;;;;;;5010831;28;923;-65
2021/01/25 13:25:15;;;;;;;;;;;;;;;;;;5010838;28;875;-66
2021/01/25 13:27:41;;;;;;;;;;;;;;;;;;5011277;28;906;-65
2021/01/25 13:30:07;;;;;;;;;;;;;;;;;;5010764;28;1183;-65
2021/01/25 13:32:32;;;;;;;;;;;;;;;;;;5011116;28;1009;-65
2021/01/25 13:34:57;;;;;;;;;;;;;;;;;;5009910;28;1890;-65
2021/01/25 13:37:23;;;;;;;;;;;;;;;;;;5011002;28;811;-65
2021/01/25 13:39:49;;;;;;;;;;;;;;;;;;5012001;28;874;-65
2021/01/25 13:42:14;;;;;;;;;;;;;;;;;;5011379;28;910;-65
2021/01/25 13:44:39;;;;;;;;;;;;;;;;;;5011080;28;911;-65
2021/01/25 13:47:05;;;;;;;;;;;;;;;;;;5010802;28;835;-65
2021/01/25 13:49:30;;;;;;;;;;;;;;;;;;5010628;28;886;-63
2021/01/25 13:51:56;;;;;;;;;;;;;;;;;;5010719;28;816;-66
2021/01/25 13:54:21;;;;;;;;;;;;;;;;;;5010793;28;734;-66
2021/01/25 13:56:47;;;;;;;;;;;;;;;;;;5011164;28;1969;-65
2021/01/25 13:59:12;;;;;;;;;;;;;;;;;;5010770;28;827;-66
2021/01/25 14:01:38;;;;;;;;;;;;;;;;;;5011221;28;920;-64
2021/01/25 14:04:04;;;;;;;;;;;;;;;;;;5010623;28;816;-66
2021/01/25 14:06:29;;;;;;;;;;;;;;;;;;5010649;28;883;-66
2021/01/25 14:08:54;;;;;;;;;;;;;;;;;;5009394;28;784;-64
2021/01/25 14:11:23;;;;;;;;;;;;;;;;;;5011015;28;1076;-68
2021/01/25 14:13:49;;;;;;;;;;;;;;;;;;5011221;28;819;-64
2021/01/25 14:16:14;;;;;;;;;;;;;;;;;;5008974;28;1969;-66
2021/01/25 14:18:40;;;;;;;;;;;;;;;;;;5009015;28;765;-65
2021/01/25 14:21:05;;;;;;;;;;;;;;;;;;5010082;28;812;-63
2021/01/25 14:23:30;;;;;;;;;;;;;;;;;;5010126;28;828;-65
2021/01/25 14:25:56;;;;;;;;;;;;;;;;;;5010484;28;827;-65
2021/01/25 14:28:21;;;;;;;;;;;;;;;;;;5009872;28;816;-66
2021/01/25 14:30:47;;;;;;;;;;;;;;;;;;5010415;28;819;-66
2021/01/25 14:33:13;;;;;;;;;;;;;;;;;;5009783;28;820;-65
2021/01/25 14:35:39;;;;;;;;;;;;;;;;;;5010084;28;1922;-64
2021/01/25 14:38:05;;;;;;;;;;;;;;;;;;5008429;28;1644;-65
2021/01/25 14:40:30;;;;;;;;;;;;;;;;;;5009493;28;823;-65
2021/01/25 14:42:55;;;;;;;;;;;;;;;;;;5009871;28;807;-65
2021/01/25 14:45:25;;;;;;;;;;;;;;;;;;5009894;28;823;-64
2021/01/25 14:47:51;;;;;;;;;;;;;;;;;;5010240;28;835;-67
2021/01/25 14:50:17;;;;;;;;;;;;;;;;;;5010349;28;936;-65
2021/01/25 14:52:42;;;;;;;;;;;;;;;;;;5008648;28;943;-66
2021/01/25 14:55:08;;;;;;;;;;;;;;;;;;5008816;28;1910;-64
2021/01/25 14:57:33;;;;;;;;;;;;;;;;;;5008991;28;811;-65
2021/01/25 14:59:59;;;;;;;;;;;;;;;;;;5009834;28;961;-65
2021/01/25 15:02:24;;;;;;;;;;;;;;;;;;5009321;28;881;-65
2021/01/25 15:04:50;;;;;;;;;;;;;;;;;;5009057;28;851;-67
2021/01/25 15:07:15;;;;;;;;;;;;;;;;;;5009799;28;883;-63
2021/01/25 15:09:41;;;;;;;;;;;;;;;;;;5009598;28;1017;-65
2021/01/25 15:12:07;;;;;;;;;;;;;;;;;;5009207;28;866;-64
2021/01/25 15:14:32;;;;;;;;;;;;;;;;;;5008819;28;867;-65
2021/01/25 15:16:59;;;;;;;;;;;;;;;;;;5009224;28;1972;-66
2021/01/25 15:19:24;;;;;;;;;;;;;;;;;;5008987;28;839;-66
2021/01/25 15:21:50;;;;;;;;;;;;;;;;;;5009589;28;914;-68
2021/01/25 15:24:16;;;;;;;;;;;;;;;;;;5009952;28;997;-66
2021/01/25 15:26:41;;;;;;;;;;;;;;;;;;5009017;28;913;-64
2021/01/25 15:29:06;;;;;;;;;;;;;;;;;;5008551;28;1060;-64
2021/01/25 15:31:32;;;;;;;;;;;;;;;;;;5008996;28;1011;-66
2021/01/25 15:33:57;;;;;;;;;;;;;;;;;;5009204;28;820;-66
2021/01/25 15:36:23;;;;;;;;;;;;;;;;;;5008184;28;1889;-67
2021/01/25 15:38:48;;;;;;;;;;;;;;;;;;5009236;28;942;-66
2021/01/25 15:41:14;;;;;;;;;;;;;;;;;;5007884;28;820;-65
2021/01/25 15:43:39;;;;;;;;;;;;;;;;;;5008403;28;887;-65
2021/01/25 15:46:04;;;;;;;;;;;;;;;;;;5008153;28;883;-66
2021/01/25 15:48:30;;;;;;;;;;;;;;;;;;5008612;28;862;-64
2021/01/25 15:50:55;;;;;;;;;;;;;;;;;;5008800;28;918;-65
2021/01/25 15:53:22;;;;;;;;;;;;;;;;;;5009151;28;942;-67
2021/01/25 15:55:48;;;;;;;;;;;;;;;;;;5008809;28;1878;-66
2021/01/25 15:58:14;;;;;;;;;;;;;;;;;;5008621;28;847;-66
2021/01/25 16:00:39;;;;;;;;;;;;;;;;;;5006798;28;879;-66
2021/01/25 16:03:05;;;;;;;;;;;;;;;;;;5007115;28;820;-65
2021/01/25 16:05:30;;;;;;;;;;;;;;;;;;5008567;28;823;-65
2021/01/25 16:07:55;;;;;;;;;;;;;;;;;;5008791;28;819;-65
2021/01/25 16:10:21;;;;;;;;;;;;;;;;;;5008155;28;1170;-68
2021/01/25 16:12:46;;;;;;;;;;;;;;;;;;5008825;28;903;-66
2021/01/25 16:15:12;;;;;;;;;;;;;;;;;;5008437;28;1969;-64
2021/01/25 16:17:41;;;;;;;;;;;;;;;;;;5008250;28;780;-65
2021/01/25 16:20:07;;;;;;;;;;;;;;;;;;5008124;28;824;-66
2021/01/25 16:22:32;;;;;;;;;;;;;;;;;;5008268;28;800;-65
2021/01/25 16:24:58;;;;;;;;;;;;;;;;;;5007662;28;808;-65
2021/01/25 16:27:24;;;;;;;;;;;;;;;;;;4991611;28;840;-66
2021/01/25 16:29:49;;;;;;;;;;;;;;;;;;4988836;28;743;-65
2021/01/25 16:32:15;;;;;;;;;;;;;;;;;;4988646;28;813;-63
2021/01/25 16:34:40;;;;;;;;;;;;;;;;;;4987917;28;933;-66
2021/01/25 16:37:07;;;;;;;;;;;;;;;;;;4986279;28;1965;-64
2021/01/25 16:39:32;;;;;;;;;;;;;;;;;;4987194;28;840;-64
2021/01/25 16:41:58;;;;;;;;;;;;;;;;;;4988243;28;887;-66
2021/01/25 16:44:23;;;;;;;;;;;;;;;;;;4987457;28;899;-66
2021/01/25 16:46:49;;;;;;;;;;;;;;;;;;4988528;28;899;-66
2021/01/25 16:49:14;;;;;;;;;;;;;;;;;;4988578;28;895;-65
2021/01/25 16:51:39;;;;;;;;;;;;;;;;;;4987968;28;819;-65
2021/01/25 16:54:05;;;;;;;;;;;;;;;;;;4987871;28;836;-66
2021/01/25 16:56:31;;;;;;;;;;;;;;;;;;4988302;28;1957;-65
2021/01/25 16:58:56;;;;;;;;;;;;;;;;;;4987928;28;836;-66
2021/01/25 17:01:22;;;;;;;;;;;;;;;;;;4988239;28;930;-68
2021/01/25 17:03:47;;;;;;;;;;;;;;;;;;4988459;28;820;-66
2021/01/25 17:06:13;;;;;;;;;;;;;;;;;;4987523;28;844;-65
2021/01/25 17:08:38;;;;;;;;;;;;;;;;;;4987368;28;804;-66